Time;durP1;ratioP1;P1;durP2;ratioP2;P2;SDS_P1;SDS_P2;PMS_P1;PMS_P2;Temp;Humidity;BMP_temperature;BMP_pressure;BME280_temperature;BME280_humidity;BME280_pressure;Samples;Min_cycle;Max_cycle;Signal;HPM_P1;HPM_P2
2023/03/10 00:02:20;;;;;;;26.30;14.48;;;;;;;;;;5052543;28;20649;-58
2023/03/10 00:04:52;;;;;;;28.65;16.02;;;0.80;99.90;;;;;;5052959;28;20131;-61
2023/03/10 00:07:19;;;;;;;19.90;11.20;;;;;;;;;;5052351;28;20540;-62
2023/03/10 00:09:45;;;;;;;20.00;10.27;;;;;;;;;;5053080;28;20094;-61
2023/03/10 00:12:11;;;;;;;24.20;14.27;;;;;;;;;;5053037;28;20032;-61
2023/03/10 00:14:37;;;;;;;23.38;14.05;;;;;;;;;;5053668;28;20066;-59
2023/03/10 00:17:04;;;;;;;24.05;13.68;;;;;;;;;;5053084;28;20517;-60
2023/03/10 00:19:30;;;;;;;24.40;14.38;;;;;;;;;;5052237;28;20098;-59
2023/03/10 00:21:56;;;;;;;26.25;14.98;;;;;;;;;;5054002;28;20047;-58
2023/03/10 00:24:22;;;;;;;26.27;16.00;;;;;;;;;;5053757;28;20101;-59
2023/03/10 00:26:51;;;;;;;27.02;16.15;;;0.90;99.90;;;;;;5051893;28;20123;-59
2023/03/10 00:29:17;;;;;;;25.88;15.85;;;;;;;;;;5050883;28;20493;-59
2023/03/10 00:31:44;;;;;;;24.65;14.43;;;;;;;;;;5052493;28;20041;-59
2023/03/10 00:34:10;;;;;;;24.27;14.35;;;;;;;;;;5052330;28;20127;-59
2023/03/10 00:36:38;;;;;;;27.00;15.95;;;;;;;;;;5053511;28;20123;-59
2023/03/10 00:39:04;;;;;;;21.42;10.98;;;;;;;;;;5053077;28;20044;-58
2023/03/10 00:41:32;;;;;;;26.70;16.00;;;;;;;;;;5053903;28;20055;-59
2023/03/10 00:43:58;;;;;;;23.73;13.70;;;;;;;;;;5052807;28;20060;-60
2023/03/10 00:46:25;;;;;;;23.08;13.55;;;;;;;;;;5054367;28;20068;-61
2023/03/10 00:48:51;;;;;;;21.08;11.85;;;;;;;;;;5053400;28;20051;-60
2023/03/10 00:51:18;;;;;;;20.60;11.23;;;0.90;99.90;;;;;;5053316;28;20576;-59
2023/03/10 00:53:44;;;;;;;24.05;14.88;;;;;;;;;;5053074;28;21248;-59
2023/03/10 00:56:12;;;;;;;26.88;17.65;;;;;;;;;;5052953;28;20413;-58
2023/03/10 00:58:38;;;;;;;26.88;15.77;;;;;;;;;;5053472;28;21051;-58
2023/03/10 01:01:05;;;;;;;25.75;14.63;;;;;;;;;;5054528;28;20366;-58
2023/03/10 01:03:32;;;;;;;27.02;16.63;;;;;;;;;;5053431;28;20040;-59
2023/03/10 01:05:58;;;;;;;29.65;18.17;;;;;;;;;;5051938;28;20067;-59
2023/03/10 01:08:24;;;;;;;28.67;16.42;;;;;;;;;;5051796;28;20454;-58
2023/03/10 01:10:50;;;;;;;26.02;16.88;;;;;;;;;;5052774;28;20037;-59
2023/03/10 01:13:17;;;;;;;28.25;17.35;;;1.00;99.90;;;;;;5052944;28;20067;-59
2023/03/10 01:15:43;;;;;;;28.02;17.85;;;;;;;;;;5052704;28;20098;-59
2023/03/10 01:18:09;;;;;;;29.67;17.80;;;;;;;;;;5050893;28;20105;-59
2023/03/10 01:20:36;;;;;;;28.27;16.27;;;;;;;;;;5052284;28;20123;-59
2023/03/10 01:23:02;;;;;;;24.67;15.57;;;;;;;;;;5053751;28;20059;-59
2023/03/10 01:25:28;;;;;;;27.45;15.88;;;;;;;;;;5052417;28;20118;-60
2023/03/10 01:27:54;;;;;;;25.30;15.50;;;;;;;;;;5050581;28;20132;-58
2023/03/10 01:30:20;;;;;;;24.83;15.77;;;;;;;;;;5055446;28;20115;-59
2023/03/10 01:32:47;;;;;;;27.67;17.70;;;;;;;;;;5055922;28;20044;-59
2023/03/10 01:35:13;;;;;;;25.20;16.52;;;;;;;;;;5057071;28;20198;-58
2023/03/10 01:37:39;;;;;;;23.85;16.90;;;;;;;;;;5056053;28;21019;-59
2023/03/10 01:40:07;;;;;;;21.38;14.05;;;;;;;;;;5055936;28;20427;-59
2023/03/10 01:42:33;;;;;;;24.02;15.30;;;;;;;;;;5054931;28;20055;-59
2023/03/10 01:45:04;;;;;;;14.77;8.88;;;;;;;;;;5057074;28;20044;-59
2023/03/10 01:47:30;;;;;;;21.67;13.93;;;;;;;;;;5056898;28;20295;-59
2023/03/10 01:49:56;;;;;;;16.45;10.68;;;;;;;;;;5056482;28;20048;-59
2023/03/10 01:52:25;;;;;;;16.85;10.55;;;1.30;99.90;;;;;;5055800;28;20491;-59
2023/03/10 01:55:08;;;;;;;16.90;10.25;;;1.20;99.90;;;;;;5055287;28;20098;-59
2023/03/10 01:57:39;;;;;;;16.30;10.07;;;1.40;99.90;;;;;;5056559;28;20128;-59
2023/03/10 02:00:13;;;;;;;16.90;11.38;;;1.40;99.90;;;;;;5056321;28;20382;-59
2023/03/10 02:02:47;;;;;;;18.40;10.82;;;1.50;99.90;;;;;;5055489;28;20076;-58
2023/03/10 02:05:14;;;;;;;17.38;9.80;;;;;;;;;;5055786;28;20080;-59
2023/03/10 02:07:40;;;;;;;13.48;8.55;;;;;;;;;;5056283;28;20526;-59
2023/03/10 02:10:07;;;;;;;11.65;6.43;;;;;;;;;;5057052;28;20049;-60
2023/03/10 02:12:33;;;;;;;16.45;10.60;;;;;;;;;;5055442;28;20386;-58
2023/03/10 02:14:59;;;;;;;15.35;9.55;;;;;;;;;;5055720;28;20044;-58
2023/03/10 02:17:26;;;;;;;11.35;6.88;;;;;;;;;;5057033;28;20037;-59
2023/03/10 02:20:11;;;;;;;15.02;9.77;;;1.40;99.90;;;;;;5055472;28;20117;-59
2023/03/10 02:22:38;;;;;;;9.63;5.72;;;1.30;99.90;;;;;;5055143;28;20059;-59
2023/03/10 02:25:04;;;;;;;16.25;10.43;;;;;;;;;;5054400;28;20044;-59
2023/03/10 02:27:33;;;;;;;19.00;10.75;;;;;;;;;;5055243;28;20696;-59
2023/03/10 02:30:06;;;;;;;18.48;11.85;;;1.30;99.90;;;;;;5053840;28;20123;-59
2023/03/10 02:32:40;;;;;;;14.93;8.48;;;1.40;99.90;;;;;;5054113;28;20613;-59
2023/03/10 02:35:06;;;;;;;16.25;10.38;;;;;;;;;;5054264;28;20041;-59
2023/03/10 02:37:33;;;;;;;14.07;8.48;;;;;;;;;;5055747;28;20029;-59
2023/03/10 02:40:00;;;;;;;14.38;8.13;;;;;;;;;;5054430;28;20479;-59
2023/03/10 02:42:33;;;;;;;20.73;11.45;;;1.30;99.90;;;;;;5054664;28;20048;-59
2023/03/10 02:44:59;;;;;;;16.90;9.85;;;;;;;;;;5055357;28;20355;-58
2023/03/10 02:47:25;;;;;;;17.77;10.73;;;;;;;;;;5054998;28;20068;-59
2023/03/10 02:49:51;;;;;;;16.40;8.63;;;;;;;;;;5052907;28;20047;-59
2023/03/10 02:52:23;;;;;;;18.95;10.77;;;;;;;;;;5053842;28;20052;-60
2023/03/10 02:54:49;;;;;;;;;;;;;;;;;;5053733;28;20048;-59
2023/03/10 02:57:15;;;;;;;20.52;13.13;;;1.00;99.90;;;;;;5054556;28;19928;-59
2023/03/10 02:59:41;;;;;;;23.38;13.30;;;;;;;;;;5054918;28;20044;-59
2023/03/10 03:02:07;;;;;;;22.90;13.57;;;;;;;;;;5054060;28;20405;-59
2023/03/10 03:04:33;;;;;;;19.40;12.63;;;;;;;;;;5054097;28;20041;-59
2023/03/10 03:06:59;;;;;;;16.75;10.05;;;;;;;;;;5054292;28;20222;-59
2023/03/10 03:09:25;;;;;;;19.45;11.57;;;;;;;;;;5055056;28;20040;-58
2023/03/10 03:11:51;;;;;;;20.88;12.38;;;;;;;;;;5053969;28;20511;-59
2023/03/10 03:14:18;;;;;;;24.15;14.65;;;;;;;;;;5054860;28;20051;-59
2023/03/10 03:16:44;;;;;;;22.23;14.57;;;;;;;;;;5054185;28;20075;-59
2023/03/10 03:19:10;;;;;;;19.85;10.98;;;;;;;;;;5054696;28;20037;-59
2023/03/10 03:21:36;;;;;;;23.05;11.80;;;;;;;;;;5054950;28;20122;-59
2023/03/10 03:24:02;;;;;;;22.48;13.70;;;;;;;;;;5053730;28;20398;-59
2023/03/10 03:26:28;;;;;;;17.55;9.95;;;;;;;;;;5053948;28;20036;-59
2023/03/10 03:28:55;;;;;;;21.55;14.35;;;;;;;;;;5053579;28;20467;-59
2023/03/10 03:31:22;;;;;;;19.38;10.18;;;0.90;99.90;;;;;;5053535;28;20591;-59
2023/03/10 03:33:49;;;;;;;22.70;13.13;;;;;;;;;;5053276;28;20456;-59
2023/03/10 03:36:15;;;;;;;21.67;11.05;;;;;;;;;;5051628;28;20040;-59
2023/03/10 03:38:41;;;;;;;16.40;8.27;;;;;;;;;;5053066;28;25386;-59
2023/03/10 03:41:07;;;;;;;23.45;13.02;;;;;;;;;;5053723;28;20044;-59
2023/03/10 03:43:34;;;;;;;22.15;12.55;;;;;;;;;;5052943;28;20091;-59
2023/03/10 03:46:00;;;;;;;19.55;11.65;;;;;;;;;;5053925;28;20040;-60
2023/03/10 03:48:26;;;;;;;24.38;14.63;;;;;;;;;;5053379;28;20033;-60
2023/03/10 03:50:53;;;;;;;16.85;9.10;;;;;;;;;;5054064;28;20395;-60
2023/03/10 03:53:19;;;;;;;27.92;15.00;;;;;;;;;;5054330;28;20037;-59
2023/03/10 03:55:45;;;;;;;18.48;10.95;;;;;;;;;;5053525;28;20047;-59
2023/03/10 03:58:11;;;;;;;28.65;17.70;;;;;;;;;;5052783;28;20044;-60
2023/03/10 04:00:39;;;;;;;22.23;13.30;;;;;;;;;;5052773;28;20052;-60
2023/03/10 04:03:05;;;;;;;29.23;14.82;;;;;;;;;;5053089;28;20040;-61
2023/03/10 04:05:31;;;;;;;28.60;16.88;;;;;;;;;;5052478;28;20147;-59
2023/03/10 04:07:57;;;;;;;31.08;18.42;;;;;;;;;;5052648;28;20194;-59
2023/03/10 04:10:25;;;;;;;27.50;16.80;;;;;;;;;;5053728;28;20056;-59
2023/03/10 04:12:52;;;;;;;22.75;13.95;;;;;;;;;;5052289;28;20043;-59
2023/03/10 04:15:18;;;;;;;28.20;15.98;;;;;;;;;;5053526;28;20378;-59
2023/03/10 04:17:44;;;;;;;25.33;14.57;;;;;;;;;;5053486;28;20401;-59
2023/03/10 04:20:13;;;;;;;28.20;16.73;;;;;;;;;;5052746;28;20040;-59
2023/03/10 04:22:39;;;;;;;24.75;14.55;;;0.90;99.90;;;;;;5051448;28;20123;-59
2023/03/10 04:25:06;;;;;;;27.75;17.60;;;0.90;99.90;;;;;;5052496;28;20068;-59
2023/03/10 04:27:32;;;;;;;23.67;15.05;;;;;;;;;;5054439;28;20044;-59
2023/03/10 04:29:58;;;;;;;21.15;12.73;;;;;;;;;;5054852;28;20072;-59
2023/03/10 04:32:24;;;;;;;28.45;17.08;;;;;;;;;;5053332;28;20290;-59
2023/03/10 04:34:51;;;;;;;31.40;18.13;;;;;;;;;;5052645;28;20036;-60
2023/03/10 04:37:17;;;;;;;28.33;15.82;;;;;;;;;;5053571;28;20036;-58
2023/03/10 04:39:43;;;;;;;30.25;17.58;;;;;;;;;;5052871;28;20156;-58
2023/03/10 04:42:09;;;;;;;30.58;18.48;;;;;;;;;;5054125;28;20040;-57
2023/03/10 04:44:35;;;;;;;31.27;17.98;;;;;;;;;;5053412;28;20052;-57
2023/03/10 04:47:01;;;;;;;27.88;14.45;;;;;;;;;;5053868;28;20135;-58
2023/03/10 04:49:28;;;;;;;26.70;14.73;;;;;;;;;;5053481;28;20044;-57
2023/03/10 04:51:54;;;;;;;26.88;15.10;;;;;;;;;;5053112;28;20060;-57
2023/03/10 04:54:20;;;;;;;33.05;19.00;;;;;;;;;;5053296;28;20067;-57
2023/03/10 04:56:46;;;;;;;29.83;16.85;;;;;;;;;;5053088;28;20051;-57
2023/03/10 04:59:12;;;;;;;30.23;16.80;;;;;;;;;;5053307;28;20401;-57
2023/03/10 05:01:38;;;;;;;30.08;17.40;;;;;;;;;;5052808;28;20147;-57
2023/03/10 05:04:05;;;;;;;29.88;16.15;;;;;;;;;;5053675;28;20049;-57
2023/03/10 05:06:31;;;;;;;23.38;13.35;;;;;;;;;;5056957;28;20043;-57
2023/03/10 05:08:59;;;;;;;34.88;20.23;;;;;;;;;;5057040;28;20958;-57
2023/03/10 05:11:25;;;;;;;36.72;19.92;;;;;;;;;;5057389;28;20083;-57
2023/03/10 05:13:51;;;;;;;36.97;18.00;;;;;;;;;;5056039;28;20409;-57
2023/03/10 05:16:19;;;;;;;39.22;21.42;;;0.80;99.90;;;;;;5056582;28;20119;-57
2023/03/10 05:18:46;;;;;;;41.40;22.13;;;;;;;;;;5055654;28;20044;-57
2023/03/10 05:21:12;;;;;;;45.47;22.08;;;;;;;;;;5058111;28;20156;-57
2023/03/10 05:23:39;;;;;;;24.83;12.30;;;;;;;;;;5057646;28;20032;-57
2023/03/10 05:26:07;;;;;;;36.58;18.92;;;0.80;99.90;;;;;;5056074;28;20048;-57
2023/03/10 05:28:33;;;;;;;52.22;27.90;;;;;;;;;;5056416;28;20072;-57
2023/03/10 05:30:59;;;;;;;41.63;19.80;;;;;;;;;;5055842;28;20039;-57
2023/03/10 05:33:25;;;;;;;41.75;20.75;;;;;;;;;;5056084;28;20089;-59
2023/03/10 05:35:51;;;;;;;52.55;24.77;;;;;;;;;;5057075;28;20036;-59
2023/03/10 05:38:17;;;;;;;65.47;32.15;;;;;;;;;;5056583;28;20386;-59
2023/03/10 05:40:43;;;;;;;54.40;24.77;;;;;;;;;;5057262;28;20102;-58
2023/03/10 05:43:10;;;;;;;45.40;21.95;;;;;;;;;;5056452;28;20048;-59
2023/03/10 05:45:36;;;;;;;49.08;23.58;;;;;;;;;;5056552;28;20709;-58
2023/03/10 05:48:02;;;;;;;60.40;29.52;;;;;;;;;;5056348;28;20497;-59
2023/03/10 05:50:28;;;;;;;51.97;24.30;;;;;;;;;;5057324;28;20105;-59
2023/03/10 05:52:55;;;;;;;64.53;31.15;;;;;;;;;;5055422;28;20075;-58
2023/03/10 05:55:21;;;;;;;43.63;20.58;;;;;;;;;;5056017;28;20048;-59
2023/03/10 05:57:47;;;;;;;73.10;32.47;;;;;;;;;;5056777;28;20420;-59
2023/03/10 06:00:14;;;;;;;33.63;17.00;;;;;;;;;;5055672;28;20040;-60
2023/03/10 06:02:40;;;;;;;48.08;21.77;;;;;;;;;;5055732;28;20045;-58
2023/03/10 06:05:07;;;;;;;49.30;24.48;;;;;;;;;;5055317;28;20043;-59
2023/03/10 06:07:33;;;;;;;53.53;25.65;;;;;;;;;;5055067;28;20527;-58
2023/03/10 06:09:59;;;;;;;59.72;27.63;;;;;;;;;;5055020;28;20087;-59
2023/03/10 06:12:25;;;;;;;64.95;30.13;;;;;;;;;;5056019;28;20123;-58
2023/03/10 06:14:51;;;;;;;60.65;27.38;;;;;;;;;;5053897;28;20765;-59
2023/03/10 06:17:17;;;;;;;51.00;23.98;;;;;;;;;;5054312;28;20110;-59
2023/03/10 06:19:43;;;;;;;58.38;26.48;;;;;;;;;;5055567;28;20040;-59
2023/03/10 06:22:10;;;;;;;50.03;23.27;;;;;;;;;;5055054;28;20040;-60
2023/03/10 06:24:36;;;;;;;30.52;15.70;;;;;;;;;;5054891;28;20040;-59
2023/03/10 06:27:02;;;;;;;38.65;18.10;;;;;;;;;;5054303;28;20047;-59
2023/03/10 06:29:28;;;;;;;42.38;19.30;;;;;;;;;;5054154;28;20059;-59
2023/03/10 06:31:54;;;;;;;43.75;20.65;;;;;;;;;;5054911;28;20044;-60
2023/03/10 06:34:20;;;;;;;46.17;21.95;;;;;;;;;;5054607;28;20067;-60
2023/03/10 06:36:46;;;;;;;33.33;16.23;;;;;;;;;;5054497;28;20654;-59
2023/03/10 06:39:13;;;;;;;25.40;11.88;;;;;;;;;;5054920;28;20044;-59
2023/03/10 06:41:39;;;;;;;33.72;17.35;;;;;;;;;;5054893;28;20036;-59
2023/03/10 06:44:05;;;;;;;30.20;16.50;;;;;;;;;;5054811;28;20080;-59
2023/03/10 06:46:31;;;;;;;39.33;19.92;;;;;;;;;;5055015;28;20428;-58
2023/03/10 06:48:57;;;;;;;30.30;15.38;;;;;;;;;;5054343;28;20040;-59
2023/03/10 06:51:23;;;;;;;33.78;15.90;;;;;;;;;;5055217;28;20036;-59
2023/03/10 06:53:49;;;;;;;36.05;19.50;;;;;;;;;;5055314;28;20628;-60
2023/03/10 06:56:17;;;;;;;33.03;17.73;;;;;;;;;;5054842;28;20063;-61
2023/03/10 06:58:43;;;;;;;38.05;18.20;;;;;;;;;;5054419;28;20084;-61
2023/03/10 07:01:19;;;;;;;36.50;18.92;;;;;;;;;;5054148;28;20040;-61
2023/03/10 07:03:45;;;;;;;34.33;18.02;;;;;;;;;;5054509;28;20041;-60
2023/03/10 07:06:11;;;;;;;35.92;17.77;;;;;;;;;;5054728;28;20052;-61
2023/03/10 07:08:37;;;;;;;23.08;11.75;;;;;;;;;;5054072;28;20136;-61
2023/03/10 07:11:03;;;;;;;29.15;15.52;;;;;;;;;;5054056;28;20044;-61
2023/03/10 07:13:29;;;;;;;19.33;10.15;;;;;;;;;;5054296;28;20129;-60
2023/03/10 07:15:56;;;;;;;27.02;13.82;;;;;;;;;;5053845;28;20044;-60
2023/03/10 07:18:26;;;;;;;24.67;12.80;;;;;;;;;;5052494;28;20040;-60
2023/03/10 07:20:53;;;;;;;22.98;11.25;;;;;;;;;;5053760;28;20052;-61
2023/03/10 07:23:19;;;;;;;38.10;20.45;;;;;;;;;;5053785;28;20036;-60
2023/03/10 07:25:46;;;;;;;29.25;15.93;;;;;;;;;;5055229;28;20490;-61
2023/03/10 07:28:12;;;;;;;33.15;15.93;;;;;;;;;;5053634;28;20039;-60
2023/03/10 07:30:38;;;;;;;28.92;14.45;;;;;;;;;;5053611;28;20292;-60
2023/03/10 07:33:04;;;;;;;39.08;20.25;;;;;;;;;;5052841;28;20032;-60
2023/03/10 07:35:31;;;;;;;33.83;18.77;;;;;;;;;;5054001;28;20044;-60
2023/03/10 07:37:57;;;;;;;41.50;21.92;;;;;;;;;;5051541;28;20081;-60
2023/03/10 07:40:23;;;;;;;33.90;16.55;;;;;;;;;;5052107;28;20516;-59
2023/03/10 07:42:56;;;;;;;36.40;17.85;;;;;;;;;;5051659;28;20123;-59
2023/03/10 07:45:22;;;;;;;;;;;0.90;99.90;;;;;;5053780;28;20060;-59
2023/03/10 07:47:49;;;;;;;33.60;18.67;;;;;;;;;;5054068;28;20407;-58
2023/03/10 07:50:15;;;;;;;36.05;19.00;;;;;;;;;;5056273;28;20047;-58
2023/03/10 07:52:41;;;;;;;34.33;19.67;;;;;;;;;;5053925;28;20040;-58
2023/03/10 07:55:08;;;;;;;37.97;18.45;;;;;;;;;;5053008;28;20528;-57
2023/03/10 07:57:34;;;;;;;28.25;14.15;;;;;;;;;;5053041;28;20055;-58
2023/03/10 08:00:00;;;;;;;40.72;20.80;;;;;;;;;;5054226;28;20052;-57
2023/03/10 08:02:26;;;;;;;39.25;21.88;;;;;;;;;;5053410;28;20040;-58
2023/03/10 08:04:52;;;;;;;31.27;15.45;;;;;;;;;;5051712;28;20076;-57
2023/03/10 08:07:18;;;;;;;37.28;20.10;;;;;;;;;;5052105;28;20116;-57
2023/03/10 08:09:51;;;;;;;35.92;18.75;;;;;;;;;;5053865;28;20055;-58
2023/03/10 08:12:17;;;;;;;35.38;18.25;;;;;;;;;;5053416;28;20122;-57
2023/03/10 08:14:43;;;;;;;40.67;20.15;;;;;;;;;;5053607;28;20032;-57
2023/03/10 08:17:09;;;;;;;33.85;18.33;;;;;;;;;;5054030;28;20044;-57
2023/03/10 08:19:36;;;;;;;37.90;20.95;;;0.70;99.90;;;;;;5052612;28;20468;-57
2023/03/10 08:22:03;;;;;;;29.25;14.25;;;;;;;;;;5053851;28;20039;-57
2023/03/10 08:24:29;;;;;;;23.98;12.80;;;;;;;;;;5053738;28;20040;-57
2023/03/10 08:26:55;;;;;;;38.25;21.70;;;;;;;;;;5054418;28;20110;-57
2023/03/10 08:29:21;;;;;;;36.78;19.67;;;;;;;;;;5052424;28;20044;-57
2023/03/10 08:31:48;;;;;;;22.15;12.68;;;;;;;;;;5054351;28;20075;-58
2023/03/10 08:34:15;;;;;;;36.80;19.85;;;1.20;99.90;;;;;;5052900;28;20146;-57
2023/03/10 08:36:41;;;;;;;24.25;12.90;;;;;;;;;;5053791;28;20044;-57
2023/03/10 08:39:08;;;;;;;26.10;14.77;;;;;;;;;;5055364;28;20543;-58
2023/03/10 08:41:36;;;;;;;34.38;18.65;;;;;;;;;;5057309;28;20044;-57
2023/03/10 08:44:03;;;;;;;39.63;22.10;;;;;;;;;;5057336;28;20048;-58
2023/03/10 08:46:30;;;;;;;29.20;16.75;;;0.90;99.90;;;;;;5058168;28;20036;-57
2023/03/10 08:48:57;;;;;;;31.10;17.35;;;;;;;;;;5057658;28;20040;-58
2023/03/10 08:51:23;;;;;;;27.42;15.35;;;;;;;;;;5058593;28;20136;-59
2023/03/10 08:53:50;;;;;;;22.38;12.50;;;;;;;;;;5058668;28;20040;-57
2023/03/10 08:56:17;;;;;;;32.03;17.95;;;;;;;;;;5058028;28;20245;-57
2023/03/10 08:58:43;;;;;;;26.30;15.10;;;;;;;;;;5056088;28;20558;-57
2023/03/10 09:01:10;;;;;;;36.17;17.83;;;;;;;;;;5055868;28;20040;-57
2023/03/10 09:03:38;;;;;;;38.08;21.48;;;;;;;;;;5055932;28;20046;-57
2023/03/10 09:06:04;;;;;;;38.80;21.40;;;;;;;;;;5056447;28;20041;-57
2023/03/10 09:08:30;;;;;;;32.95;18.17;;;;;;;;;;5056714;28;20102;-57
2023/03/10 09:10:56;;;;;;;30.58;16.98;;;;;;;;;;5057521;28;20135;-57
2023/03/10 09:13:22;;;;;;;34.88;18.60;;;;;;;;;;5056475;28;20852;-58
2023/03/10 09:15:49;;;;;;;27.70;13.80;;;;;;;;;;5056093;28;20040;-57
2023/03/10 09:18:16;;;;;;;36.30;19.65;;;;;;;;;;5056509;28;20071;-58
2023/03/10 09:20:43;;;;;;;23.83;12.32;;;0.90;99.90;;;;;;5071891;28;20051;-58
2023/03/10 09:23:09;;;;;;;33.55;18.17;;;;;;;;;;5055888;28;20277;-58
2023/03/10 09:25:36;;;;;;;32.22;17.80;;;;;;;;;;5056822;28;20045;-58
2023/03/10 09:28:02;;;;;;;29.40;15.82;;;;;;;;;;5056024;28;20230;-58
2023/03/10 09:30:28;;;;;;;36.28;19.10;;;;;;;;;;5058562;28;20044;-58
2023/03/10 09:32:54;;;;;;;29.63;15.85;;;;;;;;;;5055166;28;20427;-58
2023/03/10 09:35:20;;;;;;;33.88;17.10;;;;;;;;;;5056615;28;20184;-57
2023/03/10 09:37:47;;;;;;;27.58;15.93;;;;;;;;;;5056200;28;20455;-58
2023/03/10 09:40:16;;;;;;;19.55;9.70;;;;;;;;;;5056892;28;20041;-58
2023/03/10 09:42:56;;;;;;;23.13;11.73;;;;;;;;;;5057065;28;20044;-58
2023/03/10 09:45:36;;;;;;;31.33;17.35;;;1.00;99.90;;;;;;5055859;28;20032;-58
2023/03/10 09:48:05;;;;;;;28.33;15.10;;;;;;;;;;5054923;28;20366;-59
2023/03/10 09:50:47;;;;;;;24.88;14.32;;;1.00;99.90;;;;;;5055516;28;20047;-58
2023/03/10 09:53:32;;;;;;;32.28;17.30;;;;;;;;;;5055933;28;20565;-57
2023/03/10 09:55:58;;;;;;;30.88;17.15;;;;;;;;;;5056211;28;20068;-58
2023/03/10 09:58:57;;;;;;;30.92;19.92;;;;;;;;;;5054992;28;20058;-58
2023/03/10 10:01:24;;;;;;;31.58;18.10;;;;;;;;;;5030289;28;20053;-59
2023/03/10 10:04:04;;;;;;;33.75;18.27;;;1.20;99.90;;;;;;5055881;28;20041;-58
2023/03/10 10:06:32;;;;;;;36.08;20.52;;;;;;;;;;5056888;28;20044;-58
2023/03/10 10:09:06;;;;;;;31.50;16.95;;;1.10;99.90;;;;;;5056223;28;20056;-58
2023/03/10 10:11:32;;;;;;;23.80;12.73;;;;;;;;;;5056657;28;20700;-57
2023/03/10 10:14:21;;;;;;;25.30;13.80;;;1.10;99.90;;;;;;5056403;28;20040;-58
2023/03/10 10:16:53;;;;;;;35.28;18.83;;;;;;;;;;5056689;28;20103;-58
2023/03/10 10:19:19;;;;;;;35.42;19.02;;;;;;;;;;5055275;28;20124;-58
2023/03/10 10:22:00;;;;;;;31.05;17.75;;;;;;;;;;5055638;28;20538;-58
2023/03/10 10:24:27;;;;;;;27.30;15.80;;;;;;;;;;5069503;28;20425;-58
2023/03/10 10:26:53;;;;;;;32.22;19.10;;;;;;;;;;5054854;28;20332;-58
2023/03/10 10:29:25;;;;;;;32.53;17.73;;;1.10;99.90;;;;;;5055992;28;20052;-57
2023/03/10 10:32:11;;;;;;;32.67;17.55;;;;;;;;;;5055974;28;20044;-58
2023/03/10 10:34:42;;;;;;;33.90;18.58;;;1.00;99.90;;;;;;5054605;28;20401;-58
2023/03/10 10:37:28;;;;;;;36.20;18.98;;;;;;;;;;5055031;28;20110;-58
2023/03/10 10:39:56;;;;;;;33.22;17.77;;;;;;;;;;5054978;28;20509;-57
2023/03/10 10:42:25;;;;;;;35.92;20.15;;;;;;;;;;5054229;28;20056;-57
2023/03/10 10:45:17;;;;;;;32.60;18.33;;;;;;;;;;5055110;28;20040;-58
2023/03/10 10:47:49;;;;;;;27.17;12.77;;;;;;;;;;5052607;28;20504;-58
2023/03/10 10:50:22;;;;;;;32.10;19.52;;;;;;;;;;5055020;28;20055;-58
2023/03/10 10:52:51;;;;;;;34.45;18.73;;;;;;;;;;5055597;28;20056;-57
2023/03/10 10:55:25;;;;;;;34.22;17.92;;;;;;;;;;5054658;28;20044;-57
2023/03/10 10:58:00;;;;;;;38.55;20.17;;;1.10;99.90;;;;;;5054870;28;20555;-57
2023/03/10 11:00:28;;;;;;;29.25;13.02;;;;;;;;;;5054753;28;20055;-58
2023/03/10 11:02:55;;;;;;;25.17;12.65;;;;;;;;;;5054908;28;20048;-58
2023/03/10 11:05:24;;;;;;;25.83;14.68;;;1.10;99.90;;;;;;5055266;28;20143;-57
2023/03/10 11:07:50;;;;;;;30.00;17.25;;;;;;;;;;5055481;28;20515;-56
2023/03/10 11:10:18;;;;;;;29.73;16.92;;;;;;;;;;5054070;28;20052;-57
2023/03/10 11:12:59;;;;;;;28.00;14.88;;;1.00;99.90;;;;;;5055887;28;20048;-57
2023/03/10 11:15:45;;;;;;;31.45;18.25;;;;;;;;;;5054909;28;20040;-57
2023/03/10 11:18:41;;;;;;;36.60;20.55;;;;;;;;;;5053441;28;20751;-57
2023/03/10 11:21:21;;;;;;;37.15;18.65;;;1.00;99.90;;;;;;5042904;28;20052;-58
2023/03/10 11:23:56;;;;;;;32.45;19.73;;;;;;;;;;5054505;28;20033;-57
2023/03/10 11:27:09;;;;;;;29.30;16.75;;;1.10;99.90;;;;;;5053578;28;20044;-57
2023/03/10 11:29:45;;;;;;;32.40;18.40;;;1.10;99.90;;;;;;5050281;28;20473;-57
2023/03/10 11:32:29;;;;;;;43.45;21.85;;;;;;;;;;5053064;28;20040;-58
2023/03/10 11:34:57;;;;;;;25.30;13.90;;;;;;;;;;5054377;28;20052;-57
2023/03/10 11:37:25;;;;;;;27.13;15.13;;;;;;;;;;5052953;28;20044;-57
2023/03/10 11:40:06;;;;;;;31.95;19.05;;;1.30;99.90;;;;;;5052900;28;20399;-57
2023/03/10 11:42:48;;;;;;;36.50;20.23;;;;;;;;;;5053427;28;20070;-57
2023/03/10 11:45:20;;;;;;;35.95;21.40;;;;;;;;;;5052733;28;20048;-57
2023/03/10 11:48:06;;;;;;;31.67;15.63;;;;;;;;;;5052353;28;20040;-58
2023/03/10 11:50:38;;;;;;;18.45;10.00;;;;;;;;;;5053949;28;20378;-57
2023/03/10 11:53:09;;;;;;;27.95;15.57;;;;;;;;;;5052338;28;20041;-57
2023/03/10 11:55:36;;;;;;;29.20;17.20;;;;;;;;;;5052652;28;20067;-57
2023/03/10 11:58:04;;;;;;;39.00;23.02;;;;;;;;;;5053184;28;20085;-57
2023/03/10 12:00:32;;;;;;;44.03;24.45;;;;;;;;;;5051401;28;20047;-57
2023/03/10 12:03:08;;;;;;;38.60;22.35;;;;;;;;;;5051404;28;20110;-57
2023/03/10 12:05:46;;;;;;;29.45;15.82;;;;;;;;;;5050855;28;20048;-57
2023/03/10 12:08:14;;;;;;;35.88;18.65;;;1.00;99.90;;;;;;5053246;28;20044;-57
2023/03/10 12:10:41;;;;;;;33.33;18.85;;;;;;;;;;5052395;28;20055;-57
2023/03/10 12:13:20;;;;;;;29.15;15.55;;;1.30;99.90;;;;;;5052520;28;20052;-57
2023/03/10 12:15:46;;;;;;;41.47;22.98;;;;;;;;;;5052166;28;20087;-57
2023/03/10 12:18:12;;;;;;;33.22;17.88;;;;;;;;;;5051639;28;20043;-57
2023/03/10 12:20:38;;;;;;;27.98;16.13;;;;;;;;;;5052369;28;20409;-57
2023/03/10 12:23:10;;;;;;;35.38;18.58;;;;;;;;;;5053482;28;20044;-57
2023/03/10 12:25:37;;;;;;;33.58;20.13;;;;;;;;;;5052927;28;20055;-57
2023/03/10 12:28:15;;;;;;;37.40;21.42;;;;;;;;;;5051345;28;20048;-57
2023/03/10 12:30:49;;;;;;;37.08;21.17;;;1.20;99.90;;;;;;5053159;28;20041;-57
2023/03/10 12:33:40;;;;;;;38.80;22.00;;;1.10;99.90;;;;;;5054449;28;20055;-57
2023/03/10 12:36:20;;;;;;;39.33;20.77;;;1.20;99.90;;;;;;5046449;28;20060;-57
2023/03/10 12:38:56;;;;;;;36.45;20.75;;;1.00;99.90;;;;;;5053393;28;20075;-57
2023/03/10 12:41:25;;;;;;;43.10;23.45;;;;;;;;;;5053680;28;20048;-57
2023/03/10 12:43:55;;;;;;;26.05;14.65;;;1.30;99.90;;;;;;5053576;28;20458;-58
2023/03/10 12:46:42;;;;;;;38.33;21.98;;;1.20;99.90;;;;;;5053686;28;20498;-56
2023/03/10 12:49:27;;;;;;;26.50;14.88;;;1.20;99.90;;;;;;5053468;28;20053;-57
2023/03/10 12:52:09;;;;;;;46.80;25.27;;;;;;;;;;5055283;28;20048;-57
2023/03/10 12:54:54;;;;;;;47.03;23.80;;;;;;;;;;5054289;28;20048;-57
2023/03/10 12:57:37;;;;;;;25.20;13.07;;;1.80;99.90;;;;;;5053310;28;20044;-57
2023/03/10 13:00:09;;;;;;;51.17;25.70;;;;;;;;;;5052839;28;20079;-56
2023/03/10 13:02:49;;;;;;;44.13;22.75;;;1.20;99.90;;;;;;5053493;28;20132;-57
2023/03/10 13:05:25;;;;;;;36.83;19.73;;;;;;;;;;5054277;28;20049;-57
2023/03/10 13:07:57;;;;;;;43.35;23.73;;;1.30;99.90;;;;;;5053122;28;20071;-57
2023/03/10 13:10:26;;;;;;;46.17;26.37;;;1.20;99.90;;;;;;5053297;28;20149;-57
2023/03/10 13:12:59;;;;;;;43.30;23.92;;;;;;;;;;5051735;28;20686;-56
2023/03/10 13:15:29;;;;;;;32.50;18.45;;;;;;;;;;5052675;28;20109;-57
2023/03/10 13:18:09;;;;;;;43.33;22.00;;;;;;;;;;5052022;28;20049;-56
2023/03/10 13:20:36;;;;;;;45.13;23.70;;;;;;;;;;5053417;28;20051;-57
2023/03/10 13:23:02;;;;;;;46.85;23.90;;;;;;;;;;5053319;28;20040;-58
2023/03/10 13:25:28;;;;;;;36.40;18.55;;;;;;;;;;5054138;28;20506;-57
2023/03/10 13:27:56;;;;;;;30.48;15.90;;;;;;;;;;5056254;28;20159;-57
2023/03/10 13:30:26;;;;;;;37.50;19.25;;;1.40;99.90;;;;;;5056518;28;20068;-57
2023/03/10 13:33:01;;;;;;;42.10;21.40;;;1.50;99.90;;;;;;5055712;28;20044;-57
2023/03/10 13:35:37;;;;;;;42.08;21.92;;;;;;;;;;5056026;28;20408;-57
2023/03/10 13:38:16;;;;;;;46.63;22.05;;;;;;;;;;5054760;28;20048;-56
2023/03/10 13:40:59;;;;;;;40.58;19.88;;;;;;;;;;5056016;28;20497;-56
2023/03/10 13:43:35;;;;;;;38.47;21.35;;;;;;;;;;5055703;28;20509;-56
2023/03/10 13:46:03;;;;;;;43.38;25.98;;;;;;;;;;5055524;28;20601;-57
2023/03/10 13:48:31;;;;;;;33.92;18.45;;;1.70;99.90;;;;;;5056830;28;20083;-57
2023/03/10 13:51:13;;;;;;;31.58;17.38;;;1.50;99.90;;;;;;5056277;28;20052;-57
2023/03/10 13:53:39;;;;;;;40.70;24.63;;;;;;;;;;5056465;28;20080;-57
2023/03/10 13:56:30;;;;;;;31.45;17.65;;;1.50;99.90;;;;;;5056341;28;20278;-57
2023/03/10 13:58:57;;;;;;;39.65;23.50;;;1.50;99.90;;;;;;5056608;28;20059;-58
2023/03/10 14:01:26;;;;;;;41.70;25.73;;;1.50;99.90;;;;;;5056388;28;20045;-57
2023/03/10 14:04:05;;;;;;;41.50;24.05;;;1.40;99.90;;;;;;5054915;28;20337;-58
2023/03/10 14:06:32;;;;;;;46.85;24.77;;;;;;;;;;5056649;28;20094;-57
2023/03/10 14:09:12;;;;;;;45.30;27.40;;;;;;;;;;5055690;28;20060;-57
2023/03/10 14:11:39;;;;;;;41.67;24.17;;;;;;;;;;5056117;28;20067;-57